Time;durP1;ratioP1;P1;durP2;ratioP2;P2;SDS_P1;SDS_P2;PMS_P1;PMS_P2;Temp;Humidity;BMP_temperature;BMP_pressure;BME280_temperature;BME280_humidity;BME280_pressure;Samples;Min_cycle;Max_cycle;Signal;HPM_P1;HPM_P2
2020/12/30 00:01:08;;;;;;;5.90;4.43;;;3.40;99.90;;;;;;4953412;28;20223;-84
2020/12/30 00:03:34;;;;;;;10.27;5.47;;;3.40;99.90;;;;;;4981913;28;21124;-83
2020/12/30 00:06:00;;;;;;;7.07;5.33;;;3.30;99.90;;;;;;4956793;28;20465;-85
2020/12/30 00:09:01;;;;;;;5.07;4.07;;;3.30;99.90;;;;;;4975876;28;20447;-87
2020/12/30 00:11:44;;;;;;;4.67;3.53;;;3.40;99.90;;;;;;4970646;28;20568;-84
2020/12/30 00:14:09;;;;;;;5.40;4.10;;;3.40;99.90;;;;;;4951360;28;20445;-83
2020/12/30 00:16:35;;;;;;;5.60;3.80;;;3.50;99.90;;;;;;4937530;28;20430;-85
2020/12/30 00:19:01;;;;;;;5.43;3.23;;;3.50;99.90;;;;;;4953936;28;20286;-83
2020/12/30 00:21:26;;;;;;;7.17;4.53;;;3.40;99.90;;;;;;4954005;28;20307;-85
2020/12/30 00:23:52;;;;;;;7.23;3.43;;;3.40;99.90;;;;;;4942578;28;20203;-84
2020/12/30 00:26:19;;;;;;;6.73;3.27;;;3.50;99.90;;;;;;4937695;28;20222;-84
2020/12/30 00:28:44;;;;;;;6.07;3.50;;;3.50;99.90;;;;;;4971693;28;20190;-85
2020/12/30 00:31:10;;;;;;;4.53;3.77;;;3.50;99.90;;;;;;4970937;28;20470;-85
2020/12/30 00:33:36;;;;;;;5.80;3.40;;;3.50;99.90;;;;;;4971209;28;20441;-84
2020/12/30 00:36:03;;;;;;;3.33;2.63;;;3.50;99.90;;;;;;4954551;28;20461;-86
2020/12/30 00:38:28;;;;;;;3.13;2.40;;;3.60;99.90;;;;;;4973613;28;20537;-87
2020/12/30 00:40:54;;;;;;;2.80;2.37;;;3.70;99.90;;;;;;4957306;28;20485;-85
2020/12/30 00:43:19;;;;;;;5.20;2.60;;;3.80;99.90;;;;;;4973890;28;20202;-83
2020/12/30 00:45:47;;;;;;;7.27;2.83;;;3.80;99.90;;;;;;4954968;28;20633;-85
2020/12/30 00:48:13;;;;;;;6.07;2.10;;;3.80;99.90;;;;;;4927971;28;20198;-85
2020/12/30 00:50:39;;;;;;;3.07;2.40;;;3.90;99.90;;;;;;4958351;28;20466;-84
2020/12/30 00:53:04;;;;;;;2.90;2.43;;;3.90;99.90;;;;;;4953071;28;20798;-85
2020/12/30 00:55:30;;;;;;;2.23;2.03;;;3.90;99.90;;;;;;4957917;28;20188;-84
2020/12/30 00:57:55;;;;;;;8.40;2.60;;;3.90;99.90;;;;;;4957237;28;20194;-86
2020/12/30 01:00:21;;;;;;;3.23;2.13;;;3.80;99.90;;;;;;4956248;28;20248;-85
2020/12/30 01:02:46;;;;;;;2.33;2.10;;;3.90;99.90;;;;;;4952602;28;20190;-85
2020/12/30 01:05:13;;;;;;;2.50;1.87;;;3.90;99.90;;;;;;4974320;28;20326;-86
2020/12/30 01:07:38;;;;;;;4.27;2.53;;;4.00;99.90;;;;;;4975190;28;20304;-86
2020/12/30 01:10:05;;;;;;;2.10;1.90;;;4.00;99.90;;;;;;4971574;28;20500;-84
2020/12/30 01:12:31;;;;;;;2.40;2.10;;;4.00;99.90;;;;;;4973204;28;20213;-84
2020/12/30 01:14:57;;;;;;;2.30;2.10;;;4.00;99.90;;;;;;4973824;28;20448;-86
2020/12/30 01:17:26;;;;;;;3.20;2.13;;;4.00;99.90;;;;;;4958412;28;20201;-85
2020/12/30 01:19:52;;;;;;;2.97;2.37;;;4.00;99.90;;;;;;4977265;28;20480;-83
2020/12/30 01:22:17;;;;;;;3.00;2.17;;;4.00;99.90;;;;;;4973889;28;20473;-86
2020/12/30 01:24:43;;;;;;;3.60;2.20;;;4.00;99.90;;;;;;4974321;28;20210;-86
2020/12/30 01:27:08;;;;;;;3.17;2.30;;;4.00;99.90;;;;;;4972510;28;20219;-86
2020/12/30 01:29:34;;;;;;;3.40;2.47;;;4.00;99.90;;;;;;4973162;28;20229;-84
2020/12/30 01:32:02;;;;;;;2.47;2.20;;;4.00;99.90;;;;;;4971322;28;20925;-84
2020/12/30 01:34:27;;;;;;;6.90;2.37;;;4.10;99.90;;;;;;4973018;28;20171;-85
2020/12/30 01:36:53;;;;;;;2.23;2.03;;;4.20;99.90;;;;;;4958310;28;20473;-83
2020/12/30 01:39:20;;;;;;;6.03;2.43;;;4.10;99.90;;;;;;4956274;28;20557;-85
2020/12/30 01:41:46;;;;;;;3.90;2.60;;;4.20;99.90;;;;;;4972106;28;20465;-86
2020/12/30 01:44:15;;;;;;;2.70;2.03;;;4.20;99.90;;;;;;4973912;28;20459;-85
2020/12/30 01:46:45;;;;;;;4.20;2.90;;;4.20;99.90;;;;;;4976057;28;20481;-84
2020/12/30 01:49:17;;;;;;;3.30;2.50;;;4.30;99.90;;;;;;4973675;28;20452;-85
2020/12/30 01:51:43;;;;;;;3.30;2.20;;;4.30;99.90;;;;;;4975782;28;20468;-86
2020/12/30 01:54:14;;;;;;;2.80;2.40;;;4.40;99.90;;;;;;4974424;28;20446;-84
2020/12/30 01:56:40;;;;;;;2.40;2.20;;;4.40;99.90;;;;;;4971403;28;20450;-85
2020/12/30 01:59:08;;;;;;;5.57;3.10;;;4.40;99.90;;;;;;4957582;28;20445;-86
2020/12/30 02:01:38;;;;;;;4.53;3.00;;;4.50;99.90;;;;;;4957732;28;21217;-84
2020/12/30 02:04:06;;;;;;;4.50;3.63;;;4.50;99.90;;;;;;4955553;28;20461;-83
2020/12/30 02:06:33;;;;;;;3.80;3.17;;;4.50;99.90;;;;;;4956228;28;20568;-86
2020/12/30 02:08:58;;;;;;;6.30;3.80;;;4.40;99.90;;;;;;4957396;28;20458;-84
2020/12/30 02:11:26;;;;;;;7.47;3.97;;;4.40;99.90;;;;;;4972144;28;20462;-87
2020/12/30 02:14:06;;;;;;;4.57;2.80;;;4.40;99.90;;;;;;4973357;28;20194;-86
2020/12/30 02:16:52;;;;;;;4.83;3.70;;;4.40;99.90;;;;;;4956477;28;20512;-84
2020/12/30 02:19:19;;;;;;;7.63;3.57;;;4.40;99.90;;;;;;4972653;28;20446;-83
2020/12/30 02:21:45;;;;;;;3.60;3.30;;;4.30;99.90;;;;;;4942913;28;20470;-86
2020/12/30 02:24:15;;;;;;;7.20;2.70;;;4.30;99.90;;;;;;4956414;28;20452;-84
2020/12/30 02:26:40;;;;;;;4.43;2.97;;;4.30;99.90;;;;;;4971985;28;20472;-84
2020/12/30 02:29:06;;;;;;;3.60;2.80;;;4.40;99.90;;;;;;4956040;28;20527;-84
2020/12/30 02:31:32;;;;;;;3.40;2.10;;;4.50;99.90;;;;;;4971320;28;20211;-83
2020/12/30 02:33:57;;;;;;;11.93;3.30;;;4.50;99.90;;;;;;4973749;28;20360;-83
2020/12/30 02:36:23;;;;;;;4.53;2.60;;;4.60;99.90;;;;;;4954526;28;20194;-88
2020/12/30 02:38:53;;;;;;;4.17;2.23;;;4.60;99.90;;;;;;4954925;28;20190;-84
2020/12/30 02:41:19;;;;;;;3.80;2.53;;;4.60;99.90;;;;;;4955685;28;20630;-86
2020/12/30 02:43:46;;;;;;;1.93;1.73;;;4.60;99.90;;;;;;4953512;28;20450;-84
2020/12/30 02:46:12;;;;;;;2.20;1.80;;;4.60;99.90;;;;;;4971726;28;20473;-82
2020/12/30 02:48:38;;;;;;;2.90;1.80;;;4.60;99.90;;;;;;4952056;28;20995;-86
2020/12/30 02:51:04;;;;;;;2.83;2.10;;;4.70;99.90;;;;;;4971664;28;20460;-88
2020/12/30 02:53:30;;;;;;;4.00;2.20;;;4.70;99.90;;;;;;4954758;28;20232;-86
2020/12/30 02:55:56;;;;;;;2.33;1.90;;;4.70;99.90;;;;;;4955526;28;20442;-86
2020/12/30 02:58:21;;;;;;;5.53;1.60;;;4.70;99.90;;;;;;4956241;28;20827;-84
2020/12/30 03:00:49;;;;;;;1.70;1.60;;;4.60;99.90;;;;;;4975092;28;20214;-84
2020/12/30 03:03:15;;;;;;;1.53;1.30;;;4.60;99.90;;;;;;4960863;28;20887;-86
2020/12/30 03:05:41;;;;;;;3.20;2.00;;;4.50;99.90;;;;;;4970369;28;20456;-86
2020/12/30 03:08:06;;;;;;;1.30;1.20;;;4.60;99.90;;;;;;4945601;28;20206;-86
2020/12/30 03:10:32;;;;;;;12.03;1.70;;;4.60;99.90;;;;;;4986584;28;20206;-84
2020/12/30 03:12:57;;;;;;;1.40;1.20;;;4.70;99.90;;;;;;4962894;28;20213;-83
2020/12/30 03:15:23;;;;;;;2.03;1.80;;;4.60;99.90;;;;;;4962959;28;20207;-86
2020/12/30 03:17:48;;;;;;;1.50;1.40;;;4.60;99.90;;;;;;4932296;28;20205;-83
2020/12/30 03:20:14;;;;;;;1.83;1.37;;;4.70;99.90;;;;;;4968072;28;20212;-86
2020/12/30 03:22:40;;;;;;;2.30;1.40;;;4.80;99.90;;;;;;4968756;28;20248;-83
2020/12/30 03:25:06;;;;;;;1.73;1.60;;;4.80;99.90;;;;;;4969345;28;20874;-82
2020/12/30 03:27:31;;;;;;;2.63;1.50;;;4.80;99.90;;;;;;4970427;28;20213;-84
2020/12/30 03:29:57;;;;;;;2.27;1.43;;;4.70;99.90;;;;;;4965955;28;20308;-84
2020/12/30 03:32:23;;;;;;;1.70;1.30;;;4.80;99.90;;;;;;4947477;28;20507;-83
2020/12/30 03:34:48;;;;;;;1.70;1.60;;;4.80;99.90;;;;;;4968132;28;20323;-84
2020/12/30 03:37:14;;;;;;;1.70;1.30;;;4.80;99.90;;;;;;4969767;28;20199;-85
2020/12/30 03:39:40;;;;;;;5.10;1.40;;;4.80;99.90;;;;;;4954969;28;20787;-83
2020/12/30 03:42:06;;;;;;;1.30;1.20;;;4.80;99.90;;;;;;4956619;28;20329;-83
2020/12/30 03:44:34;;;;;;;2.20;1.73;;;4.80;99.90;;;;;;4954578;28;20222;-85
2020/12/30 03:47:01;;;;;;;1.40;1.30;;;4.70;99.90;;;;;;4953660;28;20473;-83
2020/12/30 03:49:27;;;;;;;2.80;1.40;;;4.80;99.90;;;;;;4973355;28;20985;-83
2020/12/30 03:51:53;;;;;;;2.63;1.10;;;4.70;99.90;;;;;;4940548;28;20700;-83
2020/12/30 03:54:19;;;;;;;6.40;1.53;;;4.70;99.90;;;;;;4924163;28;20242;-85
2020/12/30 03:56:45;;;;;;;3.00;1.50;;;4.60;99.90;;;;;;4972682;28;20438;-84
2020/12/30 03:59:10;;;;;;;1.80;1.30;;;4.70;99.90;;;;;;4970685;28;20218;-84
2020/12/30 04:01:36;;;;;;;8.10;1.67;;;4.70;99.90;;;;;;4955049;28;20309;-85
2020/12/30 04:04:02;;;;;;;2.33;1.20;;;4.60;99.90;;;;;;4972972;28;20245;-82
2020/12/30 04:06:27;;;;;;;1.70;1.60;;;4.60;99.90;;;;;;4972457;28;20664;-84
2020/12/30 04:08:53;;;;;;;1.77;1.30;;;4.60;99.90;;;;;;4955896;28;20458;-85
2020/12/30 04:11:21;;;;;;;2.87;1.63;;;4.60;99.90;;;;;;4972846;28;20341;-85
2020/12/30 04:13:47;;;;;;;2.50;1.70;;;4.60;99.90;;;;;;4971173;28;20199;-85
2020/12/30 04:16:20;;;;;;;2.43;1.70;;;4.50;99.90;;;;;;4954040;28;20813;-85
2020/12/30 04:18:46;;;;;;;1.60;1.33;;;4.40;99.90;;;;;;4954985;28;20205;-86
2020/12/30 04:21:16;;;;;;;13.03;1.90;;;4.40;99.90;;;;;;4974219;28;20449;-86
2020/12/30 04:23:42;;;;;;;4.80;2.37;;;4.30;99.90;;;;;;4952749;28;20189;-84
2020/12/30 04:26:07;;;;;;;2.00;1.73;;;4.20;99.90;;;;;;4942942;28;20484;-86
2020/12/30 04:28:33;;;;;;;6.33;1.67;;;4.20;99.90;;;;;;4971033;28;20265;-82
2020/12/30 04:30:58;;;;;;;3.83;1.57;;;4.10;99.90;;;;;;4954544;28;20219;-84
2020/12/30 04:33:24;;;;;;;1.77;1.57;;;4.20;99.90;;;;;;4970216;28;20288;-83
2020/12/30 04:35:50;;;;;;;1.47;1.23;;;4.10;99.90;;;;;;4940315;28;20194;-83
2020/12/30 04:38:15;;;;;;;4.70;1.87;;;4.10;99.90;;;;;;4971173;28;21099;-83
2020/12/30 04:40:41;;;;;;;4.20;1.67;;;4.00;99.90;;;;;;4955768;28;20218;-84
2020/12/30 04:43:08;;;;;;;1.90;1.70;;;4.00;99.90;;;;;;4972453;28;20197;-84
2020/12/30 04:45:34;;;;;;;1.97;1.77;;;4.00;99.90;;;;;;4972726;28;20442;-85
2020/12/30 04:48:01;;;;;;;8.73;1.83;;;4.00;99.90;;;;;;4953922;28;20490;-87
2020/12/30 04:50:27;;;;;;;3.77;2.40;;;4.10;99.90;;;;;;4970726;28;20290;-84
2020/12/30 04:52:53;;;;;;;2.17;1.60;;;4.10;99.90;;;;;;4972964;28;21034;-85
2020/12/30 04:55:23;;;;;;;2.30;1.80;;;4.20;99.90;;;;;;4956063;28;20845;-83
2020/12/30 04:58:09;;;;;;;1.80;1.63;;;4.30;99.90;;;;;;4950992;28;20565;-84
2020/12/30 05:00:38;;;;;;;3.53;1.57;;;4.30;99.90;;;;;;4966391;28;20458;-84
2020/12/30 05:03:11;;;;;;;1.43;1.33;;;4.30;99.90;;;;;;4969496;28;20465;-86
2020/12/30 05:05:38;;;;;;;1.63;1.50;;;4.40;99.90;;;;;;4968534;28;20668;-84
2020/12/30 05:08:12;;;;;;;4.03;1.80;;;4.40;99.90;;;;;;4954954;28;20864;-85
2020/12/30 05:10:39;;;;;;;5.07;1.87;;;4.40;99.90;;;;;;4970463;28;20519;-86
2020/12/30 05:13:05;;;;;;;3.60;1.90;;;4.50;99.90;;;;;;4956721;28;20470;-84
2020/12/30 05:15:31;;;;;;;2.20;1.70;;;4.50;99.90;;;;;;4972881;28;20477;-83
2020/12/30 05:17:57;;;;;;;2.53;2.10;;;4.50;99.90;;;;;;4971581;28;20466;-85
2020/12/30 05:20:26;;;;;;;2.60;1.63;;;4.50;99.90;;;;;;4972971;28;20473;-87
2020/12/30 05:22:53;;;;;;;4.97;1.63;;;4.50;99.90;;;;;;4956968;28;20426;-85
2020/12/30 05:25:25;;;;;;;2.90;1.90;;;4.60;99.90;;;;;;4941875;28;21055;-87
2020/12/30 05:27:52;;;;;;;3.67;1.73;;;4.70;99.90;;;;;;4977000;28;20737;-85
2020/12/30 05:30:21;;;;;;;2.07;1.60;;;4.70;99.90;;;;;;4973843;28;20533;-85
2020/12/30 05:32:50;;;;;;;3.50;1.60;;;4.70;99.90;;;;;;4955609;28;20477;-86
2020/12/30 05:35:17;;;;;;;5.37;2.00;;;4.70;99.90;;;;;;4957747;28;20457;-83
2020/12/30 05:37:45;;;;;;;1.70;1.50;;;4.70;99.90;;;;;;4950440;28;20439;-84
2020/12/30 05:40:23;;;;;;;8.30;2.63;;;4.70;99.90;;;;;;4946150;28;20468;-83
2020/12/30 05:42:51;;;;;;;2.63;1.70;;;4.80;99.90;;;;;;4965287;28;20445;-86
2020/12/30 05:45:21;;;;;;;3.47;1.90;;;4.70;99.90;;;;;;4945140;28;20477;-82
2020/12/30 05:47:48;;;;;;;2.13;1.80;;;4.70;99.90;;;;;;4949715;28;20473;-84
2020/12/30 05:50:22;;;;;;;3.57;1.73;;;4.70;99.90;;;;;;4945500;28;20473;-84
2020/12/30 05:52:49;;;;;;;3.00;1.80;;;4.70;99.90;;;;;;4963020;28;20445;-83
2020/12/30 05:55:14;;;;;;;2.10;1.70;;;4.70;99.90;;;;;;4950581;28;20464;-84
2020/12/30 05:57:40;;;;;;;4.47;1.97;;;4.70;99.90;;;;;;4965841;28;20446;-82
2020/12/30 06:00:05;;;;;;;5.30;2.20;;;4.70;99.90;;;;;;4961190;28;20560;-83
2020/12/30 06:02:32;;;;;;;4.47;1.73;;;4.70;99.90;;;;;;4966818;28;20226;-82
2020/12/30 06:05:20;;;;;;;4.60;2.00;;;4.80;99.90;;;;;;4971583;28;20175;-88
2020/12/30 06:07:51;;;;;;;2.20;2.00;;;4.80;99.90;;;;;;4987763;28;20479;-88
2020/12/30 06:10:23;;;;;;;2.43;1.80;;;4.90;99.90;;;;;;4967475;28;20454;-86
2020/12/30 06:12:51;;;;;;;3.37;2.07;;;5.00;99.90;;;;;;4968489;28;20442;-80
2020/12/30 06:15:27;;;;;;;2.53;2.17;;;4.90;99.90;;;;;;4963775;28;20540;-83
2020/12/30 06:18:03;;;;;;;2.60;1.50;;;4.90;99.90;;;;;;4974125;28;20457;-87
2020/12/30 06:20:36;;;;;;;4.30;1.93;;;4.80;99.90;;;;;;4977418;28;20533;-85
2020/12/30 06:23:05;;;;;;;2.20;1.73;;;4.80;99.90;;;;;;4981323;28;20421;-85
2020/12/30 06:25:32;;;;;;;1.83;1.63;;;4.70;99.90;;;;;;4982135;28;20462;-85
2020/12/30 06:28:14;;;;;;;2.63;1.77;;;4.70;99.90;;;;;;4977385;28;20497;-86
2020/12/30 06:30:42;;;;;;;2.23;2.00;;;4.70;99.90;;;;;;4982270;28;20469;-89
2020/12/30 06:33:09;;;;;;;2.63;1.80;;;4.70;99.90;;;;;;4982033;28;20539;-86
2020/12/30 06:35:36;;;;;;;3.77;1.90;;;4.70;99.90;;;;;;4981810;28;20434;-85
2020/12/30 06:38:20;;;;;;;4.90;2.23;;;4.80;99.90;;;;;;4979080;28;20472;-84
2020/12/30 06:41:03;;;;;;;6.10;2.00;;;4.80;99.90;;;;;;4947857;28;20727;-85
2020/12/30 06:43:47;;;;;;;4.03;1.83;;;4.80;99.90;;;;;;4963125;28;20442;-83
2020/12/30 06:46:14;;;;;;;8.50;2.40;;;4.90;99.90;;;;;;4967782;28;20466;-88
2020/12/30 06:48:55;;;;;;;2.20;1.90;;;4.90;99.90;;;;;;4981400;28;20414;-87
2020/12/30 06:51:22;;;;;;;2.40;2.20;;;4.90;99.90;;;;;;4981905;28;20505;-86
2020/12/30 06:53:55;;;;;;;1.80;1.70;;;5.00;99.90;;;;;;4980670;28;20868;-81
2020/12/30 06:56:43;;;;;;;1.80;1.40;;;5.00;99.90;;;;;;4981018;28;22831;-85
2020/12/30 06:59:28;;;;;;;2.20;1.60;;;5.00;99.90;;;;;;4964943;28;20869;-87
2020/12/30 07:02:04;;;;;;;1.60;1.50;;;5.00;99.90;;;;;;4964957;28;20434;-81
2020/12/30 07:04:31;;;;;;;2.60;2.03;;;4.90;99.90;;;;;;4982058;28;20434;-84
2020/12/30 07:06:58;;;;;;;1.90;1.57;;;4.90;99.90;;;;;;4977729;28;20457;-89
2020/12/30 07:09:32;;;;;;;2.43;2.23;;;4.90;99.90;;;;;;4970710;28;20506;-84
2020/12/30 07:12:07;;;;;;;2.90;2.00;;;4.90;99.90;;;;;;4967212;28;20438;-87
2020/12/30 07:14:36;;;;;;;2.50;1.70;;;4.80;99.90;;;;;;4967314;28;20515;-84
2020/12/30 07:17:03;;;;;;;2.07;1.60;;;4.90;99.90;;;;;;4937306;28;20698;-84
2020/12/30 07:19:30;;;;;;;2.77;2.10;;;4.90;99.90;;;;;;4951301;28;20768;-86
2020/12/30 07:21:58;;;;;;;2.73;1.90;;;5.00;99.90;;;;;;4953897;28;20428;-87
2020/12/30 07:24:43;;;;;;;2.50;1.73;;;5.00;99.90;;;;;;4972769;28;20446;-84
2020/12/30 07:27:13;;;;;;;1.60;1.50;;;5.00;99.90;;;;;;4971462;28;20553;-87
2020/12/30 07:29:41;;;;;;;3.73;2.53;;;5.00;99.90;;;;;;4953684;28;20426;-87
2020/12/30 07:32:08;;;;;;;2.90;1.43;;;5.00;99.90;;;;;;4971917;28;20525;-86
2020/12/30 07:34:55;;;;;;;5.23;1.50;;;5.00;99.90;;;;;;4972092;28;20437;-86
2020/12/30 07:37:21;;;;;;;2.20;1.90;;;5.10;99.90;;;;;;4971651;28;20444;-86
2020/12/30 07:39:48;;;;;;;2.90;1.80;;;5.00;99.90;;;;;;4971673;28;20490;-88
2020/12/30 07:42:15;;;;;;;3.53;2.17;;;5.10;99.90;;;;;;4967448;28;20468;-89
2020/12/30 07:44:48;;;;;;;3.00;2.00;;;5.00;99.90;;;;;;4948269;28;20543;-85
2020/12/30 07:47:15;;;;;;;3.33;1.80;;;5.10;99.90;;;;;;4969005;28;20717;-87
2020/12/30 07:49:41;;;;;;;2.40;2.10;;;5.10;99.90;;;;;;4970061;28;20442;-87
2020/12/30 07:52:09;;;;;;;7.43;1.97;;;5.10;99.90;;;;;;4950153;28;20974;-82
2020/12/30 07:54:35;;;;;;;2.47;2.00;;;5.10;99.90;;;;;;4956888;28;20905;-86
2020/12/30 07:57:04;;;;;;;2.10;1.67;;;5.10;99.90;;;;;;4973492;28;20465;-82
2020/12/30 07:59:29;;;;;;;2.27;1.53;;;5.10;99.90;;;;;;4967908;28;20443;-87
2020/12/30 08:02:04;;;;;;;1.97;1.53;;;5.10;99.90;;;;;;4954973;28;21016;-85
2020/12/30 08:04:31;;;;;;;2.03;1.57;;;5.10;99.90;;;;;;4975905;28;20450;-86
2020/12/30 08:06:58;;;;;;;5.43;2.00;;;5.10;99.90;;;;;;4957477;28;20481;-89
2020/12/30 08:09:29;;;;;;;2.20;1.90;;;5.20;99.90;;;;;;4962221;28;20468;-87
2020/12/30 08:11:59;;;;;;;1.90;1.67;;;5.20;99.90;;;;;;4943160;28;20895;-87
2020/12/30 08:14:27;;;;;;;3.27;1.90;;;5.20;99.90;;;;;;4958992;28;20537;-85
2020/12/30 08:17:05;;;;;;;2.23;1.77;;;5.30;99.90;;;;;;4960103;28;20472;-84
2020/12/30 08:19:42;;;;;;;2.00;1.80;;;5.30;99.90;;;;;;4978459;28;20424;-86
2020/12/30 08:22:09;;;;;;;2.20;2.00;;;5.40;99.90;;;;;;4957866;28;20522;-87
2020/12/30 08:24:38;;;;;;;3.93;2.20;;;5.40;99.90;;;;;;4976834;28;20441;-87
2020/12/30 08:27:04;;;;;;;2.87;2.10;;;5.40;99.90;;;;;;4959751;28;20515;-85
2020/12/30 08:29:35;;;;;;;3.13;2.00;;;5.50;99.90;;;;;;4955700;28;20434;-87
2020/12/30 08:32:22;;;;;;;2.97;2.07;;;5.50;99.90;;;;;;4959631;28;20516;-88
2020/12/30 08:34:53;;;;;;;2.10;1.90;;;5.50;99.90;;;;;;4964547;28;20512;-86
2020/12/30 08:37:30;;;;;;;3.00;2.00;;;5.60;99.90;;;;;;4976244;28;20445;-85
2020/12/30 08:40:10;;;;;;;3.30;1.60;;;5.50;99.90;;;;;;4953736;28;20449;-87
2020/12/30 08:43:11;;;;;;;3.50;2.00;;;5.50;99.90;;;;;;4973510;28;20492;-85
2020/12/30 08:45:44;;;;;;;3.63;1.50;;;5.50;99.90;;;;;;4961455;28;20493;-86
2020/12/30 08:48:15;;;;;;;2.63;1.93;;;5.50;99.90;;;;;;4975072;28;20485;-87
2020/12/30 08:50:41;;;;;;;4.00;1.97;;;5.40;99.90;;;;;;4956986;28;21083;-85
2020/12/30 08:53:07;;;;;;;3.40;2.40;;;5.40;99.90;;;;;;4974472;28;20432;-85
2020/12/30 08:55:33;;;;;;;4.47;2.07;;;5.40;99.90;;;;;;4956221;28;20552;-85
2020/12/30 08:57:59;;;;;;;2.00;1.90;;;5.50;99.90;;;;;;4974047;28;20437;-88
2020/12/30 09:00:31;;;;;;;3.67;2.20;;;5.60;99.90;;;;;;4952945;28;20222;-85
2020/12/30 09:03:10;;;;;;;4.23;2.90;;;5.70;99.90;;;;;;4970695;28;20452;-86
2020/12/30 09:05:36;;;;;;;3.03;2.20;;;5.80;99.90;;;;;;4977620;28;20460;-86
2020/12/30 09:08:21;;;;;;;2.80;2.37;;;6.00;99.90;;;;;;4957942;28;20478;-88
2020/12/30 09:10:47;;;;;;;5.53;2.00;;;6.10;99.90;;;;;;4961756;28;20729;-87
2020/12/30 09:13:18;;;;;;;3.53;2.03;;;6.20;99.90;;;;;;4975175;28;20519;-86
2020/12/30 09:15:46;;;;;;;5.43;1.70;;;6.30;99.90;;;;;;4958401;28;20442;-89
2020/12/30 09:18:13;;;;;;;3.00;1.90;;;6.40;99.90;;;;;;4972075;28;20450;-88
2020/12/30 09:20:39;;;;;;;3.17;2.20;;;6.50;99.90;;;;;;4978204;28;20472;-89
2020/12/30 09:23:05;;;;;;;3.47;2.10;;;6.50;99.90;;;;;;4955014;28;20454;-86
2020/12/30 09:25:33;;;;;;;6.27;2.20;;;6.50;99.90;;;;;;4962241;28;20462;-84
2020/12/30 09:27:59;;;;;;;2.97;2.27;;;6.60;99.90;;;;;;4974358;28;20473;-86
2020/12/30 09:30:33;;;;;;;4.40;1.90;;;6.70;99.90;;;;;;4978109;28;20483;-86
2020/12/30 09:33:13;;;;;;;3.10;2.17;;;6.60;99.90;;;;;;4977041;28;20445;-87
2020/12/30 09:35:39;;;;;;;4.23;2.27;;;6.60;99.90;;;;;;4973291;28;20457;-86
2020/12/30 09:38:05;;;;;;;4.30;2.27;;;6.80;99.90;;;;;;4957151;28;20795;-86
2020/12/30 09:40:41;;;;;;;9.43;2.10;;;6.80;99.90;;;;;;4959394;28;20517;-85
2020/12/30 09:43:14;;;;;;;6.47;1.83;;;6.90;99.90;;;;;;4958173;28;20437;-86
2020/12/30 09:45:40;;;;;;;6.50;2.73;;;7.10;99.90;;;;;;4978212;28;20436;-88
2020/12/30 09:48:19;;;;;;;2.97;2.27;;;7.20;99.90;;;;;;4976289;28;20485;-85
2020/12/30 09:50:46;;;;;;;3.00;2.63;;;7.30;99.90;;;;;;4974094;28;20453;-86
2020/12/30 09:53:12;;;;;;;4.70;2.17;;;7.30;99.90;;;;;;4959021;28;20469;-87
2020/12/30 09:55:38;;;;;;;3.10;2.53;;;7.40;99.90;;;;;;4960262;28;20434;-84
2020/12/30 09:58:04;;;;;;;3.80;2.43;;;7.40;99.90;;;;;;4959620;28;20461;-83
2020/12/30 10:00:30;;;;;;;4.87;2.40;;;7.50;99.90;;;;;;4975835;28;20923;-85
2020/12/30 10:02:56;;;;;;;2.40;2.00;;;7.50;99.90;;;;;;4974704;28;20533;-86
2020/12/30 10:05:22;;;;;;;3.20;2.07;;;7.60;99.90;;;;;;4974986;28;20433;-86
2020/12/30 10:07:47;;;;;;;3.53;2.37;;;7.70;99.90;;;;;;4943456;28;20500;-87
2020/12/30 10:10:13;;;;;;;5.60;1.93;;;7.80;99.90;;;;;;4972459;28;20214;-87
2020/12/30 10:12:40;;;;;;;2.40;1.93;;;8.00;99.90;;;;;;4958145;28;20522;-83
2020/12/30 10:15:10;;;;;;;8.33;1.80;;;7.80;99.90;;;;;;4968163;28;20301;-86
2020/12/30 10:17:37;;;;;;;4.00;1.77;;;7.70;99.90;;;;;;4975154;28;20433;-86
2020/12/30 10:20:05;;;;;;;3.97;2.40;;;7.60;99.90;;;;;;4973031;28;20544;-88
2020/12/30 10:22:31;;;;;;;10.03;1.90;;;7.50;99.90;;;;;;4950700;28;20501;-87
2020/12/30 10:25:00;;;;;;;3.07;1.80;;;7.20;99.90;;;;;;4968225;28;20449;-88
2020/12/30 10:27:26;;;;;;;2.80;2.10;;;7.10;99.90;;;;;;4973406;28;20532;-87
2020/12/30 10:29:52;;;;;;;3.87;2.33;;;7.00;99.90;;;;;;4973070;28;20444;-86
2020/12/30 10:32:18;;;;;;;2.77;1.97;;;6.90;99.90;;;;;;4974234;28;20870;-88
2020/12/30 10:34:44;;;;;;;2.63;1.80;;;6.70;99.90;;;;;;4955981;28;20183;-87
2020/12/30 10:37:09;;;;;;;2.77;2.00;;;6.60;99.90;;;;;;4972558;28;20194;-87
2020/12/30 10:39:35;;;;;;;3.57;2.20;;;6.70;99.90;;;;;;4952844;28;20199;-86
2020/12/30 10:42:03;;;;;;;3.50;2.00;;;6.80;99.90;;;;;;4971471;28;21085;-84
2020/12/30 10:44:30;;;;;;;4.63;2.00;;;7.00;99.90;;;;;;4972447;28;20456;-84
2020/12/30 10:46:55;;;;;;;1.87;1.70;;;7.00;99.90;;;;;;4954196;28;20476;-83
2020/12/30 10:49:22;;;;;;;9.13;2.30;;;7.00;99.90;;;;;;4954574;28;20702;-84
2020/12/30 10:51:50;;;;;;;7.93;2.67;;;7.00;99.90;;;;;;4964546;28;20241;-83
2020/12/30 10:54:20;;;;;;;3.50;1.87;;;7.10;99.90;;;;;;4955937;28;20505;-86
2020/12/30 10:56:50;;;;;;;7.23;2.03;;;7.10;99.90;;;;;;4959908;28;20441;-86
2020/12/30 10:59:16;;;;;;;2.17;1.70;;;7.20;99.90;;;;;;4976116;28;20461;-86
2020/12/30 11:01:43;;;;;;;3.97;2.17;;;7.20;99.90;;;;;;4972562;28;20495;-84
2020/12/30 11:04:09;;;;;;;2.80;2.10;;;7.10;99.90;;;;;;4973860;28;20547;-86
2020/12/30 11:06:34;;;;;;;3.83;1.90;;;6.90;99.90;;;;;;4974881;28;21132;-87
2020/12/30 11:09:00;;;;;;;3.03;1.80;;;6.90;99.90;;;;;;4941256;28;20471;-86
2020/12/30 11:11:26;;;;;;;2.40;2.10;;;6.80;99.90;;;;;;4973831;28;20236;-81
2020/12/30 11:13:51;;;;;;;3.00;2.03;;;6.50;99.90;;;;;;4958299;28;20198;-85
2020/12/30 11:16:17;;;;;;;2.10;1.90;;;6.50;99.90;;;;;;4975718;28;20190;-86
2020/12/30 11:18:43;;;;;;;2.93;2.20;;;6.50;99.90;;;;;;4972671;28;20731;-83
2020/12/30 11:21:09;;;;;;;2.07;1.83;;;6.40;99.90;;;;;;4955085;28;20241;-84
2020/12/30 11:23:35;;;;;;;3.73;1.80;;;6.50;99.90;;;;;;4971416;28;20784;-85
2020/12/30 11:26:01;;;;;;;2.43;1.93;;;6.50;99.90;;;;;;4958284;28;20553;-88
2020/12/30 11:28:27;;;;;;;2.23;1.80;;;6.70;99.90;;;;;;4954811;28;20477;-85
2020/12/30 11:30:55;;;;;;;2.33;1.87;;;6.80;99.90;;;;;;4960336;28;20213;-85
2020/12/30 11:33:21;;;;;;;2.47;1.90;;;6.70;99.90;;;;;;4958090;28;20476;-84
2020/12/30 11:35:46;;;;;;;5.67;1.87;;;6.80;99.90;;;;;;4976604;28;20442;-87
2020/12/30 11:38:12;;;;;;;4.67;2.70;;;6.90;99.90;;;;;;4979459;28;20182;-86
2020/12/30 11:40:41;;;;;;;3.50;1.97;;;6.90;99.90;;;;;;4971410;28;20305;-84
2020/12/30 11:43:07;;;;;;;2.43;1.73;;;6.90;99.90;;;;;;4975767;28;20720;-84
2020/12/30 11:45:33;;;;;;;3.20;2.40;;;6.80;99.90;;;;;;4976182;28;20441;-85
2020/12/30 11:48:00;;;;;;;8.43;2.60;;;6.90;99.90;;;;;;4970653;28;20566;-85
2020/12/30 11:50:27;;;;;;;2.23;1.93;;;6.70;99.90;;;;;;4974073;28;20445;-85
2020/12/30 11:52:52;;;;;;;2.43;2.20;;;6.80;99.90;;;;;;4976429;28;20520;-83
2020/12/30 11:55:21;;;;;;;2.33;2.10;;;6.80;99.90;;;;;;4975734;28;20461;-87
2020/12/30 11:57:46;;;;;;;3.83;2.20;;;6.90;99.90;;;;;;4957985;28;20202;-85
2020/12/30 12:00:15;;;;;;;3.60;2.67;;;7.00;99.90;;;;;;4962640;28;20501;-86
2020/12/30 12:02:43;;;;;;;3.77;2.60;;;7.00;99.90;;;;;;4979198;28;20194;-86
2020/12/30 12:05:13;;;;;;;3.37;2.33;;;7.00;99.90;;;;;;4950186;28;21011;-85
2020/12/30 12:07:42;;;;;;;3.67;2.03;;;6.90;99.90;;;;;;4981300;28;20465;-88
2020/12/30 12:10:09;;;;;;;3.30;2.50;;;6.90;99.90;;;;;;4962655;28;21213;-88
2020/12/30 12:12:35;;;;;;;3.13;2.30;;;7.00;99.90;;;;;;4962117;28;20484;-88
2020/12/30 12:15:02;;;;;;;2.30;2.10;;;6.90;99.90;;;;;;4965044;28;21105;-89
2020/12/30 12:17:38;;;;;;;3.30;2.63;;;6.80;99.90;;;;;;4961372;28;20228;-88
2020/12/30 12:20:04;;;;;;;4.10;2.63;;;6.80;99.90;;;;;;4982505;28;20509;-86
2020/12/30 12:22:30;;;;;;;3.33;2.60;;;6.80;99.90;;;;;;4984157;28;20444;-87
2020/12/30 12:25:08;;;;;;;4.30;2.40;;;6.70;99.90;;;;;;4964176;28;20225;-85
2020/12/30 12:27:55;;;;;;;11.87;2.63;;;6.70;99.90;;;;;;4964532;28;20470;-85
2020/12/30 12:30:21;;;;;;;3.50;2.50;;;6.70;99.90;;;;;;4981324;28;20525;-84
2020/12/30 12:32:46;;;;;;;2.60;2.40;;;6.60;99.90;;;;;;4979254;28;20874;-88
2020/12/30 12:35:12;;;;;;;4.27;3.10;;;6.70;99.90;;;;;;4977938;28;20175;-89
2020/12/30 12:38:22;;;;;;;3.30;2.70;;;6.80;99.90;;;;;;4975237;28;20190;-91
2020/12/30 12:40:48;;;;;;;3.83;2.87;;;6.80;99.90;;;;;;4992142;28;20318;-89
2020/12/30 12:43:25;;;;;;;4.20;3.17;;;6.70;99.90;;;;;;4962724;28;20510;-83
2020/12/30 12:45:53;;;;;;;5.80;2.70;;;6.70;99.90;;;;;;4953862;28;20183;-87
2020/12/30 12:48:19;;;;;;;4.13;2.40;;;6.60;99.90;;;;;;4950096;28;20486;-87
2020/12/30 12:50:45;;;;;;;2.70;2.40;;;6.70;99.90;;;;;;4952004;28;20466;-86
2020/12/30 12:53:10;;;;;;;4.13;2.67;;;6.70;99.90;;;;;;4946986;28;20198;-85
2020/12/30 12:55:39;;;;;;;4.57;3.80;;;6.60;99.90;;;;;;4969713;28;20435;-83
2020/12/30 12:58:16;;;;;;;2.57;2.37;;;6.70;99.90;;;;;;4965495;28;20260;-89
2020/12/30 13:00:47;;;;;;;5.87;3.20;;;6.80;99.90;;;;;;4966518;28;20479;-87
2020/12/30 13:03:26;;;;;;;4.57;2.90;;;6.80;99.90;;;;;;4949718;28;20442;-87
2020/12/30 13:05:59;;;;;;;3.67;2.57;;;6.80;99.90;;;;;;4952995;28;20478;-87